Time;durP1;ratioP1;P1;durP2;ratioP2;P2;SDS_P1;SDS_P2;PMS_P1;PMS_P2;Temp;Humidity;BMP_temperature;BMP_pressure;BME280_temperature;BME280_humidity;BME280_pressure;Samples;Min_cycle;Max_cycle;Signal;HPM_P1;HPM_P2
2023/08/18 06:13:48;;;;;;;9.15;4.15;;;;;;;;;;5680691;23;20057;-68
2023/08/18 06:16:15;;;;;;;8.50;3.72;;;;;;;;;;4968533;28;20026;-68
2023/08/18 06:18:41;;;;;;;8.27;4.22;;;;;;;;;;4972423;28;20034;-69
2023/08/18 06:21:08;;;;;;;5.05;4.20;;;;;;;;;;4973390;28;20015;-69
2023/08/18 06:23:34;;;;;;;6.10;4.00;;;;;;;;;;4973101;28;20487;-69
2023/08/18 06:26:01;;;;;;;4.38;3.67;;;;;;;;;;4972581;28;20015;-68
2023/08/18 06:28:27;;;;;;;4.97;3.95;;;;;;;;;;4973077;28;20394;-69
2023/08/18 06:30:53;;;;;;;5.95;3.58;;;;;;;;;;4973061;28;20029;-69
2023/08/18 06:33:20;;;;;;;11.10;4.40;;;;;;;;;;4972935;28;20033;-68
2023/08/18 06:35:49;;;;;;;6.28;3.90;;;;;;;;;;4972989;28;20035;-69
2023/08/18 06:38:15;;;;;;;7.43;3.97;;;;;;;;;;4972708;28;20015;-69
2023/08/18 06:40:45;;;;;;;5.78;3.65;;;;;;;;;;4973184;28;20031;-68
2023/08/18 06:43:11;;;;;;;5.22;3.75;;;;;;;;;;4973005;28;20035;-68
2023/08/18 06:45:37;;;;;;;8.75;4.53;;;;;;;;;;4972728;28;20365;-69
2023/08/18 06:48:04;;;;;;;6.85;4.00;;;;;;;;;;4973014;28;20422;-68
2023/08/18 06:50:30;;;;;;;5.57;3.85;;;;;;;;;;4972515;28;20023;-68
2023/08/18 06:52:56;;;;;;;6.22;4.00;;;;;;;;;;4972354;28;20114;-69
2023/08/18 06:55:23;;;;;;;6.35;3.70;;;;;;;;;;4971766;28;20026;-68
2023/08/18 06:57:49;;;;;;;8.77;3.72;;;;;;;;;;4972589;28;20033;-69
2023/08/18 07:00:17;;;;;;;8.05;4.07;;;;;;;;;;4971611;28;20391;-68
2023/08/18 07:02:43;;;;;;;6.03;4.07;;;;;;;;;;4971965;28;20491;-68
2023/08/18 07:05:09;;;;;;;5.78;3.63;;;;;;;;;;4972860;28;20509;-68
2023/08/18 07:07:37;;;;;;;6.05;3.72;;;;;;;;;;4972822;28;20502;-68
2023/08/18 07:10:04;;;;;;;8.13;3.92;;;;;;;;;;4971136;28;20019;-69
2023/08/18 07:12:30;;;;;;;6.55;4.00;;;;;;;;;;4971336;28;20031;-68
2023/08/18 07:14:56;;;;;;;8.55;4.00;;;;;;;;;;4968747;28;20057;-68
2023/08/18 07:17:23;;;;;;;5.18;3.67;;;;;;;;;;4971994;28;20025;-69
2023/08/18 07:19:49;;;;;;;4.70;3.55;;;;;;;;;;4971436;28;20521;-68
2023/08/18 07:22:15;;;;;;;8.15;4.10;;;;;;;;;;4971519;28;20038;-69
2023/08/18 07:24:42;;;;;;;5.80;3.50;;;;;;;;;;4972325;28;20035;-69
2023/08/18 07:27:08;;;;;;;8.38;3.65;;;;;;;;;;4972734;28;20023;-69
2023/08/18 07:29:35;;;;;;;4.55;3.22;;;;;;;;;;4969843;28;20026;-69
2023/08/18 07:32:01;;;;;;;4.70;3.88;;;;;;;;;;4970551;28;20015;-68
2023/08/18 07:34:28;;;;;;;6.60;3.53;;;;;;;;;;4970716;28;20035;-68
2023/08/18 07:36:54;;;;;;;5.22;2.90;;;;;;;;;;4974055;28;20027;-70
2023/08/18 07:39:22;;;;;;;3.55;3.25;;;;;;;;;;4969667;28;20023;-70
2023/08/18 07:41:48;;;;;;;3.40;3.08;;;;;;;;;;4975110;28;20037;-68
2023/08/18 07:44:14;;;;;;;3.85;3.22;;;;;;;;;;4973477;28;20023;-69
2023/08/18 07:46:42;;;;;;;4.10;3.67;;;;;;;;;;4975748;28;20035;-70
2023/08/18 07:49:08;;;;;;;3.70;3.20;;;;;;;;;;4974129;28;20035;-69
2023/08/18 07:51:35;;;;;;;5.75;3.20;;;;;;;;;;4969519;28;20037;-69
2023/08/18 07:54:01;;;;;;;4.65;3.40;;;;;;;;;;4975339;28;20034;-69
2023/08/18 07:56:27;;;;;;;6.93;3.42;;;;;;;;;;4975113;28;20039;-69
2023/08/18 07:58:54;;;;;;;4.72;3.45;;;;;;;;;;4974906;28;20043;-70
2023/08/18 08:01:20;;;;;;;4.38;3.60;;;;;;;;;;4972895;28;20038;-70
2023/08/18 08:03:46;;;;;;;4.05;3.30;;;;;;;;;;4974947;28;20039;-69
2023/08/18 08:06:12;;;;;;;4.15;3.42;;;;;;;;;;4966249;28;20019;-69
2023/08/18 08:08:39;;;;;;;3.95;3.10;;;;;;;;;;4962774;28;20024;-69
2023/08/18 08:11:05;;;;;;;6.55;3.45;;;;;;;;;;4970140;28;20031;-70
2023/08/18 08:13:32;;;;;;;6.57;3.58;;;;;;;;;;4974519;28;20186;-70
2023/08/18 08:15:58;;;;;;;7.13;3.50;;;;;;;;;;4968639;28;20033;-70
2023/08/18 08:18:24;;;;;;;5.18;3.10;;;;;;;;;;4974355;28;20031;-72
2023/08/18 08:20:50;;;;;;;5.72;3.20;;;;;;;;;;4975035;28;20033;-69
2023/08/18 08:23:17;;;;;;;7.03;3.38;;;;;;;;;;4974852;28;20502;-69
2023/08/18 08:25:47;;;;;;;7.47;3.30;;;;;;;;;;4971063;28;20047;-69
2023/08/18 08:28:14;;;;;;;4.57;3.30;;;;;;;;;;4974655;28;20027;-69
2023/08/18 08:30:44;;;;;;;4.25;3.55;;;;;;;;;;4974496;28;20529;-68
2023/08/18 08:33:10;;;;;;;;;;;;;;;;;;4955930;29;20039;-69
2023/08/18 08:35:37;;;;;;;6.80;3.50;;;;;;;;;;4965943;28;19916;-69
2023/08/18 08:38:04;;;;;;;8.52;3.72;;;;;;;;;;4974131;28;20026;-69
2023/08/18 08:40:30;;;;;;;6.05;3.53;;;;;;;;;;4973913;28;20019;-68
2023/08/18 08:42:56;;;;;;;11.95;3.42;;;;;;;;;;4974053;28;20050;-68
2023/08/18 08:45:26;;;;;;;4.40;3.05;;;;;;;;;;4974339;28;20031;-69
2023/08/18 08:47:55;;;;;;;5.15;3.30;;;;;;;;;;4973985;28;20383;-68
2023/08/18 08:50:22;;;;;;;5.72;3.30;;;;;;;;;;4967145;28;20468;-69
2023/08/18 08:52:52;;;;;;;8.95;3.20;;;;;;;;;;4955547;29;20061;-69
2023/08/18 08:55:21;;;;;;;7.95;2.90;;;;;;;;;;4958860;28;20035;-69
2023/08/18 08:57:47;;;;;;;9.10;3.10;;;;;;;;;;4972441;28;20033;-71
2023/08/18 09:00:14;;;;;;;4.50;3.08;;;;;;;;;;4973968;28;20026;-71
2023/08/18 09:02:42;;;;;;;6.07;3.10;;;;;;;;;;4973331;28;20039;-71
2023/08/18 09:05:10;;;;;;;4.07;3.35;;;;;;;;;;4959738;28;20023;-70
2023/08/18 09:07:36;;;;;;;6.40;3.38;;;;;;;;;;4969729;28;20033;-71
2023/08/18 09:10:02;;;;;;;4.80;3.20;;;;;;;;;;4964328;28;20163;-71
2023/08/18 09:12:29;;;;;;;7.07;3.13;;;;;;;;;;4955125;29;20042;-70
2023/08/18 09:14:55;;;;;;;6.50;3.35;;;;;;;;;;4954655;28;20058;-70
2023/08/18 09:17:22;;;;;;;9.82;3.30;;;;;;;;;;4966934;28;20030;-71
2023/08/18 09:19:49;;;;;;;7.65;3.53;;;;;;;;;;4973892;28;20034;-70
2023/08/18 09:22:20;;;;;;;4.80;2.85;;;;;;;;;;4974086;28;20027;-71
2023/08/18 09:24:47;;;;;;;7.15;3.22;;;;;;;;;;4972943;28;20379;-70
2023/08/18 09:27:14;;;;;;;4.35;2.58;;;;;;;;;;4973030;28;20027;-70
2023/08/18 09:29:41;;;;;;;6.13;2.55;;;;;;;;;;4966682;28;20086;-71
2023/08/18 09:32:07;;;;;;;2.28;2.00;;;;;;;;;;4973117;28;20487;-71
2023/08/18 09:34:36;;;;;;;3.60;2.00;;;;;;;;;;4972962;28;20037;-71
2023/08/18 09:37:03;;;;;;;3.67;2.42;;;;;;;;;;4954464;28;20031;-71
2023/08/18 09:39:29;;;;;;;4.47;2.00;;;;;;;;;;4953902;29;20027;-71
2023/08/18 09:41:55;;;;;;;8.45;2.33;;;;;;;;;;4954059;28;20034;-71
2023/08/18 09:44:22;;;;;;;3.65;2.15;;;;;;;;;;4953179;29;20269;-70
2023/08/18 09:46:54;;;;;;;4.07;2.30;;;;;;;;;;4956563;28;20444;-71
2023/08/18 09:49:21;;;;;;;7.18;2.10;;;;;;;;;;4971886;28;20039;-71
2023/08/18 09:51:52;;;;;;;4.50;2.05;;;;;;;;;;4958139;28;20031;-71
2023/08/18 09:54:19;;;;;;;3.35;1.88;;;;;;;;;;4953484;29;20023;-71
2023/08/18 09:56:49;;;;;;;6.75;1.85;;;;;;;;;;4955036;28;20056;-71
2023/08/18 09:59:18;;;;;;;6.75;2.08;;;;;;;;;;4968601;28;20096;-71
2023/08/18 10:01:46;;;;;;;10.55;2.20;;;;;;;;;;4969624;28;20376;-71
2023/08/18 10:04:13;;;;;;;4.70;2.00;;;;;;;;;;4972898;28;20040;-71
2023/08/18 10:06:41;;;;;;;6.72;1.80;;;;;;;;;;4959582;28;20041;-71
2023/08/18 10:09:07;;;;;;;6.13;1.67;;;;;;;;;;4969160;28;20031;-71
2023/08/18 10:11:35;;;;;;;9.55;2.17;;;;;;;;;;4960589;28;20023;-71
2023/08/18 10:14:02;;;;;;;5.22;1.98;;;;;;;;;;4953665;29;20043;-71
2023/08/18 10:16:29;;;;;;;3.25;1.40;;;;;;;;;;4956422;28;20037;-71
2023/08/18 10:18:56;;;;;;;7.03;1.92;;;;;;;;;;4973198;28;20034;-71
2023/08/18 10:21:23;;;;;;;3.00;1.60;;;;;;;;;;4972877;28;20483;-71
2023/08/18 10:23:49;;;;;;;3.60;1.67;;;;;;;;;;4972620;28;20031;-71
2023/08/18 10:26:16;;;;;;;4.03;1.80;;;;;;;;;;4972745;28;20041;-71
2023/08/18 10:28:42;;;;;;;7.63;1.80;;;;;;;;;;4973212;28;20048;-70
2023/08/18 10:31:10;;;;;;;9.68;2.10;;;;;;;;;;4973167;28;20029;-71
2023/08/18 10:33:49;;;;;;;6.07;2.10;;;;;;;;;;4973011;28;20061;-71
2023/08/18 10:36:22;;;;;;;3.13;1.80;;;;;;;;;;4973500;28;20037;-71
2023/08/18 10:38:48;;;;;;;5.47;1.92;;;;;;;;;;4973042;28;20023;-71
2023/08/18 10:41:23;;;;;;;4.10;1.80;;;;;;;;;;4973342;28;20027;-72
2023/08/18 10:43:55;;;;;;;2.75;1.90;;;;;;;;;;4973151;28;20047;-71
2023/08/18 10:46:24;;;;;;;4.82;1.90;;;;;;;;;;4972241;28;20023;-71
2023/08/18 10:48:51;;;;;;;2.00;1.42;;;;;;;;;;4973279;28;20045;-71
2023/08/18 10:51:17;;;;;;;6.03;1.85;;;;;;;;;;4972976;28;20371;-71
2023/08/18 10:53:43;;;;;;;3.22;2.03;;;;;;;;;;4973227;28;20030;-71
2023/08/18 10:56:10;;;;;;;4.03;1.90;;;;;;;;;;4972935;28;20023;-71
2023/08/18 10:58:36;;;;;;;2.13;1.65;;;;;;;;;;4973296;28;20035;-71
2023/08/18 11:01:05;;;;;;;4.80;2.08;;;;;;;;;;4973226;28;20034;-71
2023/08/18 11:03:31;;;;;;;3.30;2.10;;;;;;;;;;4972882;28;20041;-71
2023/08/18 11:05:58;;;;;;;3.40;1.88;;;;;;;;;;4972766;28;20511;-71
2023/08/18 11:08:24;;;;;;;5.63;2.15;;;;;;;;;;4972866;28;20037;-71
2023/08/18 11:10:50;;;;;;;6.35;1.90;;;;;;;;;;4972812;28;20023;-71
2023/08/18 11:13:28;;;;;;;4.10;1.63;;;;;;;;;;4976614;28;20391;-71
2023/08/18 11:15:55;;;;;;;9.93;1.90;;;;;;;;;;4976945;28;20031;-71
2023/08/18 11:18:23;;;;;;;3.35;1.90;;;;;;;;;;4976352;28;20031;-71
2023/08/18 11:20:51;;;;;;;5.82;2.00;;;;;;;;;;4976622;28;20029;-71
2023/08/18 11:23:18;;;;;;;4.05;2.10;;;;;;;;;;4976587;28;20023;-71
2023/08/18 11:25:45;;;;;;;3.50;2.05;;;;;;;;;;4977062;28;20037;-71
2023/08/18 11:28:12;;;;;;;5.57;1.85;;;;;;;;;;4976584;28;20026;-71
2023/08/18 11:30:39;;;;;;;6.25;1.73;;;;;;;;;;4976584;28;20019;-71
2023/08/18 11:33:05;;;;;;;7.07;1.88;;;;;;;;;;4976533;28;20035;-70
2023/08/18 11:35:33;;;;;;;2.47;1.70;;;;;;;;;;4976053;28;20014;-71
2023/08/18 11:37:59;;;;;;;8.13;2.03;;;;;;;;;;4976402;28;20031;-71
2023/08/18 11:40:25;;;;;;;4.22;2.00;;;;;;;;;;4972736;28;20562;-73
2023/08/18 11:42:53;;;;;;;8.85;2.10;;;;;;;;;;4967768;28;20038;-70
2023/08/18 11:45:20;;;;;;;6.32;2.35;;;;;;;;;;4976147;28;20019;-71
2023/08/18 11:47:49;;;;;;;3.75;2.10;;;;;;;;;;4976215;28;20039;-71
2023/08/18 11:50:21;;;;;;;10.35;2.45;;;;;;;;;;4975982;28;20033;-71
2023/08/18 11:52:51;;;;;;;5.50;1.90;;;;;;;;;;4972705;28;20027;-69
2023/08/18 11:55:28;;;;;;;3.30;1.90;;;;;;;;;;4972865;28;20635;-71
2023/08/18 11:57:55;;;;;;;8.52;2.00;;;;;;;;;;4975335;28;20038;-69
2023/08/18 12:00:30;;;;;;;5.20;2.10;;;;;;;;;;4975101;28;20053;-70
2023/08/18 12:02:56;;;;;;;7.25;2.50;;;;;;;;;;4972450;28;20051;-71
2023/08/18 12:05:24;;;;;;;5.43;2.05;;;;;;;;;;4955520;29;20039;-69
2023/08/18 12:07:53;;;;;;;6.50;2.28;;;;;;;;;;4959339;28;20049;-71
2023/08/18 12:10:20;;;;;;;9.55;2.05;;;;;;;;;;4962040;28;20030;-71
2023/08/18 12:12:53;;;;;;;6.35;2.40;;;;;;;;;;4974838;28;20033;-71
2023/08/18 12:15:21;;;;;;;4.78;1.80;;;;;;;;;;4956289;28;20397;-71
2023/08/18 12:17:48;;;;;;;6.47;2.03;;;;;;;;;;4974108;28;20039;-70
2023/08/18 12:20:15;;;;;;;7.25;2.63;;;;;;;;;;4955048;29;20030;-71
2023/08/18 12:22:41;;;;;;;12.90;2.03;;;;;;;;;;4964388;28;20029;-70
2023/08/18 12:25:09;;;;;;;8.80;2.00;;;;;;;;;;4938565;29;20031;-71
2023/08/18 12:27:35;;;;;;;7.22;2.05;;;;;;;;;;4955798;29;20028;-70
2023/08/18 12:30:02;;;;;;;5.75;2.03;;;;;;;;;;4955305;28;20027;-71
2023/08/18 12:32:30;;;;;;;5.03;1.95;;;;;;;;;;4955118;29;20024;-71
2023/08/18 12:34:58;;;;;;;5.72;2.00;;;;;;;;;;4965348;28;20030;-70
2023/08/18 12:37:24;;;;;;;7.22;2.10;;;;;;;;;;4974318;28;20037;-70
2023/08/18 12:39:51;;;;;;;8.60;2.22;;;;;;;;;;4958793;28;20042;-71
2023/08/18 12:42:17;;;;;;;6.65;2.17;;;;;;;;;;4953825;29;20051;-71
2023/08/18 12:44:43;;;;;;;8.73;2.20;;;;;;;;;;4964674;28;20019;-70
2023/08/18 12:47:10;;;;;;;6.15;1.90;;;;;;;;;;4972729;28;20518;-70
2023/08/18 12:49:36;;;;;;;4.18;1.75;;;;;;;;;;4974320;28;20023;-71
2023/08/18 12:52:02;;;;;;;5.43;2.00;;;;;;;;;;4974227;28;20487;-72
2023/08/18 12:54:29;;;;;;;7.43;1.88;;;;;;;;;;4962446;28;20019;-71
2023/08/18 12:56:57;;;;;;;4.95;1.77;;;;;;;;;;4954842;29;20031;-71
2023/08/18 12:59:24;;;;;;;5.80;1.75;;;;;;;;;;4954224;28;20028;-71
2023/08/18 13:01:50;;;;;;;7.65;1.95;;;;;;;;;;4953707;29;20031;-71
2023/08/18 13:04:17;;;;;;;14.80;2.10;;;;;;;;;;4967831;28;20030;-71
2023/08/18 13:06:43;;;;;;;15.93;2.30;;;;;;;;;;4973422;28;20398;-71
2023/08/18 13:09:10;;;;;;;8.25;2.20;;;;;;;;;;4972975;28;20088;-72
2023/08/18 13:11:36;;;;;;;8.43;2.28;;;;;;;;;;4973278;28;20019;-71
2023/08/18 13:14:06;;;;;;;6.85;2.00;;;;;;;;;;4966081;28;20431;-71
2023/08/18 13:16:33;;;;;;;12.20;2.05;;;;;;;;;;4957704;28;20026;-71
2023/08/18 13:19:00;;;;;;;5.50;2.10;;;;;;;;;;4969232;28;20029;-72
2023/08/18 13:21:28;;;;;;;7.75;2.15;;;;;;;;;;4972673;28;20031;-71
2023/08/18 13:23:55;;;;;;;8.13;2.00;;;;;;;;;;4973312;28;20495;-71
2023/08/18 13:26:21;;;;;;;6.40;2.00;;;;;;;;;;4973875;28;20015;-71
2023/08/18 13:28:48;;;;;;;6.05;1.70;;;;;;;;;;4973688;28;20401;-71
2023/08/18 13:31:14;;;;;;;6.45;1.90;;;;;;;;;;4972750;28;20045;-71
2023/08/18 13:33:40;;;;;;;8.57;2.00;;;;;;;;;;4969824;28;20034;-71
2023/08/18 13:36:07;;;;;;;5.85;1.85;;;;;;;;;;4954139;28;20035;-71
2023/08/18 13:38:33;;;;;;;4.80;1.90;;;;;;;;;;4964622;28;20027;-71
2023/08/18 13:40:59;;;;;;;4.35;2.10;;;;;;;;;;4954548;29;20035;-71
2023/08/18 13:43:26;;;;;;;8.02;1.90;;;;;;;;;;4954274;28;20066;-71
2023/08/18 13:45:53;;;;;;;9.75;2.40;;;;;;;;;;4953961;28;20034;-71
2023/08/18 13:48:19;;;;;;;7.10;2.00;;;;;;;;;;4972350;28;20045;-71
2023/08/18 13:50:45;;;;;;;5.22;1.75;;;;;;;;;;4962845;28;20383;-71
2023/08/18 13:53:11;;;;;;;6.72;2.15;;;;;;;;;;4974368;28;20042;-69
2023/08/18 13:55:38;;;;;;;5.07;1.77;;;;;;;;;;4972142;28;20349;-71
2023/08/18 13:58:05;;;;;;;6.60;1.88;;;;;;;;;;4972963;28;20454;-71
2023/08/18 14:00:32;;;;;;;11.38;2.10;;;;;;;;;;4972993;28;20080;-71
2023/08/18 14:02:58;;;;;;;7.82;2.03;;;;;;;;;;4972784;28;20480;-71
2023/08/18 14:05:24;;;;;;;8.13;2.33;;;;;;;;;;4958220;28;20019;-71
2023/08/18 14:07:50;;;;;;;8.88;2.28;;;;;;;;;;4957863;28;20057;-71
2023/08/18 14:10:17;;;;;;;6.95;2.17;;;;;;;;;;4973078;28;20026;-71
2023/08/18 14:12:47;;;;;;;12.18;2.30;;;;;;;;;;4972913;28;20081;-71
2023/08/18 14:15:13;;;;;;;10.48;1.95;;;;;;;;;;4970381;28;20043;-70
2023/08/18 14:17:44;;;;;;;5.90;2.00;;;;;;;;;;4973065;28;20035;-69
2023/08/18 14:20:17;;;;;;;7.45;1.92;;;;;;;;;;4972975;28;20034;-70
2023/08/18 14:22:44;;;;;;;6.20;2.10;;;;;;;;;;4972438;28;20043;-71
2023/08/18 14:25:10;;;;;;;8.85;2.10;;;;;;;;;;4962396;28;20053;-70
2023/08/18 14:27:37;;;;;;;7.03;2.55;;;;;;;;;;4972855;28;20027;-71
2023/08/18 14:30:04;;;;;;;8.90;2.03;;;;;;;;;;4971603;28;20035;-72
2023/08/18 14:32:34;;;;;;;11.25;2.13;;;;;;;;;;4971831;28;20402;-71
2023/08/18 14:35:03;;;;;;;16.10;2.25;;;;;;;;;;4967473;28;20323;-72
2023/08/18 14:37:29;;;;;;;9.85;2.28;;;;;;;;;;4971981;28;20029;-71
2023/08/18 14:39:55;;;;;;;10.68;2.15;;;;;;;;;;4962916;28;20397;-71
2023/08/18 14:42:21;;;;;;;10.00;2.33;;;;;;;;;;4968857;28;20031;-71
2023/08/18 14:44:48;;;;;;;8.65;2.28;;;;;;;;;;4970735;28;20494;-71
2023/08/18 14:47:14;;;;;;;6.45;1.83;;;;;;;;;;4972475;28;20023;-71
2023/08/18 14:49:41;;;;;;;7.90;2.03;;;;;;;;;;4972071;28;20027;-71
2023/08/18 14:52:08;;;;;;;14.35;2.13;;;;;;;;;;4972420;28;20034;-71
2023/08/18 14:54:34;;;;;;;8.90;2.20;;;;;;;;;;4966773;28;20032;-71
2023/08/18 14:57:01;;;;;;;9.48;2.45;;;;;;;;;;4965920;28;20061;-71
2023/08/18 14:59:30;;;;;;;4.97;2.20;;;;;;;;;;4967434;28;20029;-71
2023/08/18 15:02:00;;;;;;;15.82;2.17;;;;;;;;;;4962301;28;20022;-71
2023/08/18 15:04:26;;;;;;;11.33;1.93;;;;;;;;;;4972097;28;20035;-71
2023/08/18 15:06:52;;;;;;;8.45;1.80;;;;;;;;;;4972743;28;20383;-71
2023/08/18 15:09:20;;;;;;;12.00;1.90;;;;;;;;;;4972788;28;20026;-72
2023/08/18 15:11:46;;;;;;;7.05;2.05;;;;;;;;;;4972808;28;20475;-71
2023/08/18 15:14:13;;;;;;;7.88;2.10;;;;;;;;;;4972385;28;20027;-71
2023/08/18 15:16:39;;;;;;;5.35;1.88;;;;;;;;;;4972862;28;20383;-71
2023/08/18 15:19:06;;;;;;;10.63;2.08;;;;;;;;;;4972974;28;20525;-70
2023/08/18 15:21:32;;;;;;;5.53;1.80;;;;;;;;;;4971598;28;20030;-70
2023/08/18 15:23:58;;;;;;;6.38;2.08;;;;;;;;;;4972685;28;20491;-70
2023/08/18 15:26:25;;;;;;;5.38;1.70;;;;;;;;;;4972879;28;20029;-71
2023/08/18 15:28:51;;;;;;;6.13;1.70;;;;;;;;;;4972487;28;20031;-72
2023/08/18 15:31:18;;;;;;;9.35;2.60;;;;;;;;;;4972744;28;20025;-71
